Time;durP1;ratioP1;P1;durP2;ratioP2;P2;SDS_P1;SDS_P2;PMS_P1;PMS_P2;Temp;Humidity;BMP_temperature;BMP_pressure;BME280_temperature;BME280_humidity;BME280_pressure;Samples;Min_cycle;Max_cycle;Signal;HPM_P1;HPM_P2
2023/05/18 00:02:02;;;;;;;11.00;1.80;;;9.10;69.10;;;;;;4943707;28;20458;-85
2023/05/18 00:04:33;;;;;;;7.07;1.27;;;9.00;68.80;;;;;;4959606;28;20074;-86
2023/05/18 00:07:02;;;;;;;5.40;1.80;;;9.00;69.00;;;;;;4975558;28;20030;-85
2023/05/18 00:09:34;;;;;;;5.60;1.40;;;9.00;69.10;;;;;;4976566;28;20054;-85
2023/05/18 00:12:00;;;;;;;7.73;1.20;;;9.00;69.00;;;;;;4975451;28;20085;-85
2023/05/18 00:14:27;;;;;;;7.97;1.17;;;8.90;68.90;;;;;;4975353;28;20494;-85
2023/05/18 00:16:52;;;;;;;9.80;1.20;;;8.90;69.20;;;;;;4975356;28;20072;-85
2023/05/18 00:19:19;;;;;;;8.30;2.00;;;8.90;69.40;;;;;;4958169;28;20129;-86
2023/05/18 00:21:46;;;;;;;8.00;1.50;;;8.90;69.80;;;;;;4959455;28;20170;-84
2023/05/18 00:24:13;;;;;;;9.60;1.50;;;8.80;70.10;;;;;;4959459;28;20034;-86
2023/05/18 00:26:39;;;;;;;6.73;1.47;;;8.90;70.50;;;;;;4959147;28;20027;-86
2023/05/18 00:29:06;;;;;;;6.63;2.43;;;8.90;71.60;;;;;;4959070;28;20034;-86
2023/05/18 00:31:35;;;;;;;7.20;1.60;;;8.80;71.20;;;;;;4974925;28;20402;-86
2023/05/18 00:34:13;;;;;;;8.70;1.40;;;8.80;71.10;;;;;;4991732;28;20360;-86
2023/05/18 00:36:39;;;;;;;8.30;1.80;;;8.70;71.20;;;;;;4995532;28;20029;-86
2023/05/18 00:39:06;;;;;;;8.07;1.53;;;8.80;71.50;;;;;;4993749;28;20395;-86
2023/05/18 00:41:32;;;;;;;6.57;1.57;;;8.70;72.00;;;;;;4994241;28;20060;-86
2023/05/18 00:43:58;;;;;;;8.87;1.73;;;8.70;72.10;;;;;;4994037;28;20058;-86
2023/05/18 00:46:26;;;;;;;8.63;1.63;;;8.70;72.30;;;;;;4993639;28;20054;-78
2023/05/18 00:48:52;;;;;;;6.87;1.13;;;8.70;71.90;;;;;;4994833;28;20422;-80
2023/05/18 00:51:20;;;;;;;12.17;2.17;;;8.70;71.90;;;;;;4994755;28;20022;-80
2023/05/18 00:53:46;;;;;;;5.00;1.67;;;8.60;72.30;;;;;;4994750;28;20053;-78
2023/05/18 00:56:13;;;;;;;8.23;1.80;;;8.70;72.60;;;;;;4994734;28;20057;-80
2023/05/18 00:58:40;;;;;;;7.90;1.80;;;8.60;72.70;;;;;;4994720;28;20030;-80
2023/05/18 01:01:08;;;;;;;10.00;2.50;;;8.60;72.40;;;;;;4994521;28;20554;-79
2023/05/18 01:03:37;;;;;;;4.47;1.30;;;8.60;72.40;;;;;;4994667;28;20022;-79
2023/05/18 01:06:08;;;;;;;5.03;1.43;;;8.60;72.50;;;;;;4994699;28;20430;-78
2023/05/18 01:08:34;;;;;;;5.80;1.43;;;8.60;72.60;;;;;;4994426;28;20019;-78
2023/05/18 01:11:24;;;;;;;9.43;1.90;;;8.50;73.10;;;;;;4994541;28;20394;-79
2023/05/18 01:14:05;;;;;;;7.60;2.30;;;8.50;73.30;;;;;;4994440;28;20383;-78
2023/05/18 01:16:39;;;;;;;7.13;1.80;;;8.50;73.40;;;;;;4994530;28;20091;-78
2023/05/18 01:19:29;;;;;;;7.50;1.77;;;8.50;73.30;;;;;;4993141;28;20023;-79
2023/05/18 01:21:57;;;;;;;6.27;1.90;;;8.40;73.10;;;;;;4994435;28;20033;-79
2023/05/18 01:24:24;;;;;;;8.77;1.80;;;8.40;73.00;;;;;;4994391;28;20483;-79
2023/05/18 01:26:56;;;;;;;9.53;2.27;;;8.40;73.20;;;;;;4994196;28;20025;-79
2023/05/18 01:29:24;;;;;;;9.40;1.70;;;8.40;73.30;;;;;;4977518;28;20117;-78
2023/05/18 01:31:49;;;;;;;9.13;1.80;;;8.30;74.00;;;;;;4993822;28;20479;-78
2023/05/18 01:34:15;;;;;;;6.87;1.70;;;8.40;73.80;;;;;;4992987;28;20037;-79
2023/05/18 01:36:41;;;;;;;5.73;1.63;;;8.30;73.90;;;;;;4994114;28;20486;-78
2023/05/18 01:39:08;;;;;;;6.10;1.40;;;8.40;74.10;;;;;;4992850;28;20046;-79
2023/05/18 01:41:38;;;;;;;9.80;2.20;;;8.30;74.10;;;;;;4992746;28;20365;-79
2023/05/18 01:44:11;;;;;;;9.13;2.03;;;8.30;74.50;;;;;;4994031;28;20498;-78
2023/05/18 01:47:03;;;;;;;12.27;2.07;;;8.30;74.30;;;;;;4994060;28;20023;-79
2023/05/18 01:49:55;;;;;;;6.57;1.80;;;8.30;74.80;;;;;;4994008;28;20030;-79
2023/05/18 01:52:31;;;;;;;8.47;2.10;;;8.30;74.80;;;;;;4992766;28;20041;-78
2023/05/18 01:55:02;;;;;;;9.30;2.23;;;8.30;74.90;;;;;;4993916;28;20037;-79
2023/05/18 01:57:30;;;;;;;8.37;1.97;;;8.20;74.80;;;;;;4993852;28;20034;-78
2023/05/18 01:59:58;;;;;;;6.23;2.03;;;8.20;75.00;;;;;;4993883;28;20027;-78
2023/05/18 02:02:25;;;;;;;11.67;2.37;;;8.20;75.30;;;;;;4992604;28;20026;-78
2023/05/18 02:04:51;;;;;;;5.60;1.80;;;8.20;75.20;;;;;;4993849;28;20493;-78
2023/05/18 02:07:17;;;;;;;7.73;1.90;;;8.20;75.40;;;;;;4993751;28;20054;-78
2023/05/18 02:09:43;;;;;;;8.17;1.47;;;8.20;75.40;;;;;;4993662;28;20213;-79
2023/05/18 02:12:09;;;;;;;7.13;1.70;;;8.20;76.10;;;;;;4992486;28;20499;-77
2023/05/18 02:14:35;;;;;;;5.63;1.60;;;8.20;75.60;;;;;;4992462;28;20034;-78
2023/05/18 02:17:01;;;;;;;10.00;2.07;;;8.20;75.80;;;;;;4993763;28;20033;-78
2023/05/18 02:19:29;;;;;;;8.57;2.10;;;8.20;75.70;;;;;;4976232;28;20035;-79
2023/05/18 02:21:56;;;;;;;9.33;1.93;;;8.10;75.80;;;;;;4993625;28;20022;-78
2023/05/18 02:24:23;;;;;;;8.77;2.57;;;8.10;76.00;;;;;;4992485;28;20034;-78
2023/05/18 02:26:50;;;;;;;6.80;1.50;;;8.10;76.40;;;;;;4993752;28;20072;-78
2023/05/18 02:29:15;;;;;;;9.77;1.60;;;8.10;76.20;;;;;;4993654;28;20073;-78
2023/05/18 02:31:41;;;;;;;10.80;1.93;;;8.10;76.40;;;;;;4993672;28;20022;-78
2023/05/18 02:34:07;;;;;;;6.57;1.70;;;8.10;76.10;;;;;;4992310;28;20117;-78
2023/05/18 02:36:38;;;;;;;8.03;1.93;;;8.10;76.30;;;;;;4993570;28;20031;-79
2023/05/18 02:39:05;;;;;;;8.83;1.87;;;8.00;76.90;;;;;;4993527;28;20022;-78
2023/05/18 02:41:32;;;;;;;8.90;1.80;;;8.10;76.70;;;;;;4992257;28;20122;-78
2023/05/18 02:43:57;;;;;;;9.20;1.77;;;8.00;76.70;;;;;;4996967;28;20030;-78
2023/05/18 02:46:23;;;;;;;8.97;2.00;;;8.00;76.70;;;;;;4996011;28;20549;-78
2023/05/18 02:48:49;;;;;;;6.83;1.60;;;8.00;76.70;;;;;;4996100;28;20030;-79
2023/05/18 02:51:15;;;;;;;6.20;1.57;;;8.00;77.10;;;;;;4995665;28;20081;-78
2023/05/18 02:53:43;;;;;;;6.50;2.00;;;7.90;77.10;;;;;;4979595;28;20077;-78
2023/05/18 02:56:09;;;;;;;10.03;1.90;;;8.00;77.30;;;;;;4996964;28;20026;-79
2023/05/18 02:58:34;;;;;;;6.27;2.17;;;8.00;77.40;;;;;;4995838;28;20108;-79
2023/05/18 03:01:02;;;;;;;6.23;1.97;;;8.00;77.10;;;;;;4979631;28;20499;-79
2023/05/18 03:03:28;;;;;;;7.03;1.90;;;8.00;77.50;;;;;;4996790;28;20030;-79
2023/05/18 03:05:53;;;;;;;5.67;1.97;;;7.90;77.30;;;;;;4997049;28;20038;-79
2023/05/18 03:08:21;;;;;;;9.60;2.10;;;7.90;77.30;;;;;;4996868;28;20030;-79
2023/05/18 03:10:47;;;;;;;7.37;2.00;;;7.90;77.40;;;;;;4995587;28;20063;-79
2023/05/18 03:13:13;;;;;;;9.90;2.07;;;7.90;77.50;;;;;;4996814;28;20030;-79
2023/05/18 03:15:40;;;;;;;10.13;2.20;;;7.90;77.50;;;;;;4996770;28;20076;-79
2023/05/18 03:18:05;;;;;;;13.33;1.97;;;7.80;77.70;;;;;;4995384;28;20038;-79
2023/05/18 03:20:31;;;;;;;4.93;1.37;;;7.90;77.70;;;;;;4996540;28;20030;-78
2023/05/18 03:22:57;;;;;;;8.07;2.27;;;7.90;78.00;;;;;;4996648;28;20101;-79
2023/05/18 03:25:24;;;;;;;6.90;1.60;;;7.90;77.90;;;;;;4995397;28;20019;-79
2023/05/18 03:27:51;;;;;;;5.77;1.37;;;7.80;78.00;;;;;;4996499;28;20035;-79
2023/05/18 03:30:18;;;;;;;10.10;2.37;;;7.80;78.00;;;;;;4996438;28;20169;-79
2023/05/18 03:32:45;;;;;;;5.13;1.83;;;7.80;78.00;;;;;;4996434;28;20038;-79
2023/05/18 03:35:10;;;;;;;7.67;1.73;;;7.80;78.00;;;;;;4996520;28;20030;-79
2023/05/18 03:37:36;;;;;;;9.77;2.20;;;7.80;78.60;;;;;;5004982;28;20421;-79
2023/05/18 03:40:12;;;;;;;10.13;1.97;;;7.80;78.40;;;;;;5013126;28;20030;-79
2023/05/18 03:42:38;;;;;;;8.17;1.80;;;7.70;78.40;;;;;;5014207;28;20093;-79
2023/05/18 03:45:05;;;;;;;9.97;2.03;;;7.80;78.50;;;;;;5030569;28;20092;-80
2023/05/18 03:47:31;;;;;;;8.83;1.90;;;7.70;78.50;;;;;;5015687;28;20097;-80
2023/05/18 03:49:56;;;;;;;7.80;2.20;;;7.80;78.60;;;;;;5015652;28;20057;-79
2023/05/18 03:52:22;;;;;;;6.10;2.33;;;7.70;78.80;;;;;;5030975;28;20109;-79
2023/05/18 03:54:48;;;;;;;7.30;1.83;;;7.70;78.60;;;;;;5030671;28;20026;-79
2023/05/18 03:57:17;;;;;;;10.87;2.23;;;7.70;78.70;;;;;;5030938;28;20386;-79
2023/05/18 03:59:43;;;;;;;6.87;1.57;;;7.70;79.10;;;;;;5014201;28;20451;-79
2023/05/18 04:02:12;;;;;;;8.13;2.13;;;7.70;79.10;;;;;;5015399;28;20033;-79
2023/05/18 04:04:44;;;;;;;9.27;1.90;;;7.80;79.10;;;;;;5015310;28;20466;-79
2023/05/18 04:07:10;;;;;;;9.43;2.23;;;7.80;79.00;;;;;;5000414;28;20034;-79
2023/05/18 04:09:38;;;;;;;6.67;2.03;;;7.70;79.30;;;;;;4985947;28;20540;-79
2023/05/18 04:12:04;;;;;;;6.33;1.97;;;7.80;79.40;;;;;;4994302;28;24159;-80
2023/05/18 04:14:31;;;;;;;5.83;1.87;;;7.70;79.30;;;;;;4976232;28;20506;-79
2023/05/18 04:17:03;;;;;;;9.03;2.43;;;7.70;79.50;;;;;;4976232;28;20031;-80
2023/05/18 04:19:33;;;;;;;8.97;1.90;;;7.70;79.30;;;;;;4975814;28;20026;-79
2023/05/18 04:21:58;;;;;;;7.20;2.03;;;7.80;79.50;;;;;;4974672;28;20395;-79
2023/05/18 04:24:25;;;;;;;6.63;1.60;;;7.80;79.80;;;;;;4974698;28;20046;-79
2023/05/18 04:26:51;;;;;;;12.63;2.13;;;7.90;79.60;;;;;;4975832;28;20019;-80
2023/05/18 04:29:17;;;;;;;7.93;2.07;;;7.80;79.40;;;;;;4976071;28;20029;-79
2023/05/18 04:31:46;;;;;;;7.17;1.97;;;7.80;79.50;;;;;;4974346;28;20461;-79
2023/05/18 04:34:12;;;;;;;7.17;1.50;;;7.90;79.80;;;;;;4987648;28;20038;-79
2023/05/18 04:36:41;;;;;;;6.50;2.27;;;7.80;80.10;;;;;;4976497;28;20078;-79
2023/05/18 04:39:07;;;;;;;9.43;2.13;;;7.90;79.90;;;;;;4975518;28;20023;-79
2023/05/18 04:41:33;;;;;;;7.47;2.10;;;7.90;80.00;;;;;;4979814;28;20146;-79
2023/05/18 04:43:59;;;;;;;7.33;2.03;;;8.00;80.10;;;;;;4994921;28;20022;-79
2023/05/18 04:46:25;;;;;;;11.10;3.27;;;8.00;80.00;;;;;;4993535;28;20486;-79
2023/05/18 04:48:52;;;;;;;8.17;2.03;;;8.10;80.00;;;;;;4993936;28;20030;-79
2023/05/18 04:51:20;;;;;;;6.87;1.57;;;8.10;80.00;;;;;;4993494;28;20092;-79
2023/05/18 04:53:48;;;;;;;8.63;1.90;;;8.20;80.00;;;;;;4977959;28;20487;-79
2023/05/18 04:56:19;;;;;;;8.43;1.77;;;8.20;79.90;;;;;;4994470;28;20030;-79
2023/05/18 04:58:47;;;;;;;4.37;1.57;;;8.30;79.80;;;;;;4994909;28;20026;-79
2023/05/18 05:01:16;;;;;;;5.60;1.43;;;8.30;79.70;;;;;;4993947;28;20105;-79
2023/05/18 05:03:42;;;;;;;5.73;1.30;;;8.30;79.60;;;;;;4994962;28;20058;-78
2023/05/18 05:06:09;;;;;;;11.63;2.47;;;8.40;79.80;;;;;;4994271;28;20092;-79
2023/05/18 05:08:36;;;;;;;10.67;1.80;;;8.40;79.70;;;;;;4993927;28;20027;-79
2023/05/18 05:11:02;;;;;;;11.53;1.80;;;8.50;79.50;;;;;;4994496;28;20491;-79
2023/05/18 05:13:27;;;;;;;8.10;1.50;;;8.50;79.30;;;;;;4993455;28;20033;-80
2023/05/18 05:15:53;;;;;;;5.20;1.23;;;8.50;79.10;;;;;;4994544;28;20030;-79
2023/05/18 05:18:19;;;;;;;6.10;1.40;;;8.60;79.00;;;;;;4994491;28;20027;-79
2023/05/18 05:20:45;;;;;;;8.33;1.67;;;8.60;78.80;;;;;;4994293;28;20050;-79
2023/05/18 05:23:10;;;;;;;4.60;1.63;;;8.70;78.70;;;;;;4992441;28;20077;-79
2023/05/18 05:25:36;;;;;;;5.90;1.70;;;8.70;78.50;;;;;;4994260;28;20030;-79
2023/05/18 05:28:02;;;;;;;10.40;1.40;;;8.70;78.20;;;;;;4992525;28;20027;-80
2023/05/18 05:30:28;;;;;;;9.90;1.93;;;8.80;78.10;;;;;;4994337;28;20042;-80
2023/05/18 05:32:53;;;;;;;9.60;1.23;;;8.70;77.90;;;;;;4994160;28;20548;-80
2023/05/18 05:35:19;;;;;;;6.70;1.47;;;8.80;78.00;;;;;;4991788;28;20030;-79
2023/05/18 05:37:45;;;;;;;10.93;1.40;;;8.90;78.00;;;;;;4982553;28;20038;-79
2023/05/18 05:40:11;;;;;;;7.90;1.40;;;8.90;77.90;;;;;;5009816;28;20113;-80
2023/05/18 05:42:36;;;;;;;8.83;1.43;;;9.00;77.80;;;;;;4976181;28;20479;-78
2023/05/18 05:45:02;;;;;;;11.40;1.50;;;9.00;78.20;;;;;;5007289;28;20026;-80
2023/05/18 05:47:28;;;;;;;8.13;1.10;;;9.00;77.40;;;;;;4976238;28;20033;-79
2023/05/18 05:49:54;;;;;;;6.47;1.00;;;9.10;77.30;;;;;;4973622;28;20070;-79
2023/05/18 05:52:20;;;;;;;5.80;1.27;;;9.10;77.10;;;;;;4980480;28;20030;-79
2023/05/18 05:54:46;;;;;;;7.73;1.57;;;9.10;76.90;;;;;;4991036;28;20502;-79
2023/05/18 05:57:11;;;;;;;9.67;1.53;;;9.20;76.70;;;;;;4990448;28;20045;-78
2023/05/18 05:59:37;;;;;;;8.53;1.37;;;9.30;76.70;;;;;;4985656;28;20046;-78
2023/05/18 06:02:02;;;;;;;5.33;1.00;;;9.30;76.50;;;;;;4974424;28;20027;-78
2023/05/18 06:04:28;;;;;;;8.27;1.33;;;9.30;76.40;;;;;;4972878;28;20506;-79
2023/05/18 06:06:54;;;;;;;9.57;1.37;;;9.40;76.30;;;;;;4974518;28;20037;-78
2023/05/18 06:09:19;;;;;;;7.90;1.20;;;9.50;76.10;;;;;;4973153;28;20051;-79
2023/05/18 06:11:45;;;;;;;4.97;1.10;;;9.50;76.00;;;;;;4973363;28;20054;-79
2023/05/18 06:14:11;;;;;;;10.90;1.40;;;9.60;75.90;;;;;;4974376;28;20027;-80
2023/05/18 06:16:37;;;;;;;8.67;1.13;;;9.60;75.70;;;;;;4973177;28;20027;-79
2023/05/18 06:19:02;;;;;;;8.87;1.23;;;9.70;75.50;;;;;;4978281;28;20041;-80
2023/05/18 06:21:28;;;;;;;5.17;1.50;;;9.80;75.40;;;;;;4977229;28;20487;-79
2023/05/18 06:23:55;;;;;;;9.30;1.10;;;9.80;75.00;;;;;;4979559;28;20019;-80
2023/05/18 06:26:21;;;;;;;6.00;0.90;;;9.80;74.70;;;;;;4989644;28;20019;-79
2023/05/18 06:28:48;;;;;;;6.17;1.00;;;9.80;74.50;;;;;;4992786;28;20541;-79
2023/05/18 06:31:14;;;;;;;5.27;1.13;;;9.90;74.20;;;;;;4993273;28;20395;-79
2023/05/18 06:33:39;;;;;;;7.67;1.27;;;9.80;73.90;;;;;;4985990;28;20057;-79
2023/05/18 06:36:05;;;;;;;10.37;1.40;;;9.90;73.80;;;;;;4987875;28;20110;-79
2023/05/18 06:38:31;;;;;;;8.40;1.50;;;9.90;73.50;;;;;;4986159;28;20553;-80
2023/05/18 06:40:56;;;;;;;8.57;1.63;;;9.90;73.50;;;;;;4988883;28;20170;-79
2023/05/18 06:43:24;;;;;;;5.60;1.30;;;10.00;73.70;;;;;;4997297;28;20065;-79
2023/05/18 06:45:49;;;;;;;8.33;1.13;;;10.10;73.70;;;;;;4994508;28;20120;-79
2023/05/18 06:48:15;;;;;;;6.93;0.90;;;10.10;73.60;;;;;;4997196;28;20476;-79
2023/05/18 06:50:41;;;;;;;7.13;1.43;;;10.10;73.50;;;;;;5009580;28;20030;-80
2023/05/18 06:53:06;;;;;;;6.63;1.20;;;10.20;73.50;;;;;;4984932;28;20123;-80
2023/05/18 06:55:32;;;;;;;6.97;1.27;;;10.20;73.10;;;;;;4976264;28;20035;-79
2023/05/18 06:57:57;;;;;;;7.10;1.13;;;10.30;73.30;;;;;;4990527;28;20160;-79
2023/05/18 07:00:23;;;;;;;11.43;1.20;;;10.30;73.00;;;;;;5012087;28;20031;-78
2023/05/18 07:02:49;;;;;;;7.83;1.40;;;10.30;73.00;;;;;;4995659;28;20113;-80
2023/05/18 07:05:15;;;;;;;13.97;1.73;;;10.40;72.80;;;;;;4991399;28;20122;-80
2023/05/18 07:07:41;;;;;;;7.23;1.23;;;10.50;72.80;;;;;;4984674;28;20383;-79
2023/05/18 07:10:07;;;;;;;7.37;1.27;;;10.50;72.70;;;;;;4973451;28;20055;-78
2023/05/18 07:12:33;;;;;;;7.53;1.07;;;10.60;72.60;;;;;;4977537;28;20035;-80
2023/05/18 07:14:58;;;;;;;9.23;1.87;;;10.60;72.40;;;;;;4977177;28;20031;-80
2023/05/18 07:17:24;;;;;;;11.83;1.70;;;10.60;72.30;;;;;;4977323;28;20031;-79
2023/05/18 07:19:50;;;;;;;9.37;2.00;;;10.60;72.10;;;;;;4992269;28;20055;-79
2023/05/18 07:22:15;;;;;;;9.00;1.50;;;10.70;72.00;;;;;;4977437;28;20130;-80
2023/05/18 07:24:42;;;;;;;9.20;1.20;;;10.70;71.80;;;;;;4992043;28;20089;-79
2023/05/18 07:27:07;;;;;;;7.90;1.60;;;10.80;71.80;;;;;;4992942;28;20087;-79
2023/05/18 07:29:33;;;;;;;6.23;1.10;;;10.80;71.80;;;;;;4977755;28;20030;-79
2023/05/18 07:31:59;;;;;;;8.17;1.30;;;10.80;71.80;;;;;;4977013;28;20027;-80
2023/05/18 07:34:26;;;;;;;8.63;1.27;;;10.90;71.70;;;;;;4976522;28;20423;-80
2023/05/18 07:36:52;;;;;;;9.40;1.10;;;11.00;71.70;;;;;;4976850;28;20105;-80
2023/05/18 07:39:18;;;;;;;11.10;1.23;;;11.00;71.70;;;;;;4991786;28;20058;-80
2023/05/18 07:41:47;;;;;;;6.20;1.17;;;11.10;71.50;;;;;;4976750;28;20489;-80
2023/05/18 07:44:13;;;;;;;8.73;1.17;;;11.20;71.30;;;;;;4976764;28;20495;-81
2023/05/18 07:46:39;;;;;;;5.10;1.50;;;11.20;71.10;;;;;;4980058;28;20062;-81
2023/05/18 07:49:05;;;;;;;9.40;1.25;;;11.30;71.00;;;;;;4987121;28;20046;-80
2023/05/18 07:51:31;;;;;;;6.18;1.33;;;11.40;71.00;;;;;;4995990;28;20065;-81
2023/05/18 07:53:56;;;;;;;8.18;1.40;;;11.50;70.90;;;;;;4995441;28;20023;-80
2023/05/18 07:56:24;;;;;;;7.63;1.63;;;11.60;70.70;;;;;;4995984;28;20030;-80
2023/05/18 07:58:50;;;;;;;3.28;0.80;;;11.60;70.20;;;;;;4996310;28;20022;-81
2023/05/18 08:01:16;;;;;;;12.23;1.33;;;11.70;69.90;;;;;;4996185;28;20494;-81
2023/05/18 08:03:41;;;;;;;11.18;1.92;;;11.80;69.80;;;;;;4994749;28;20026;-81
2023/05/18 08:06:07;;;;;;;8.50;1.27;;;11.90;69.70;;;;;;4978560;28;20019;-80
2023/05/18 08:08:36;;;;;;;6.55;1.10;;;12.00;69.60;;;;;;4995916;28;20162;-80
2023/05/18 08:11:02;;;;;;;7.13;0.95;;;12.10;69.60;;;;;;4995197;28;20441;-79
2023/05/18 08:13:28;;;;;;;10.95;1.80;;;12.20;69.50;;;;;;4996268;28;20474;-80
2023/05/18 08:15:56;;;;;;;6.60;1.20;;;12.40;69.10;;;;;;4993194;28;20034;-81
2023/05/18 08:18:21;;;;;;;10.68;1.75;;;12.60;68.90;;;;;;4994230;28;20038;-79
2023/05/18 08:20:52;;;;;;;6.90;1.08;;;12.60;68.50;;;;;;4993960;28;20034;-80
2023/05/18 08:23:18;;;;;;;6.97;1.30;;;12.70;68.50;;;;;;4994210;28;20034;-80
2023/05/18 08:25:44;;;;;;;5.97;0.90;;;12.80;68.20;;;;;;4995400;28;20027;-78
2023/05/18 08:28:10;;;;;;;7.15;1.08;;;13.00;67.40;;;;;;4995953;28;20105;-79
2023/05/18 08:30:35;;;;;;;7.47;1.05;;;13.10;66.80;;;;;;4995468;28;20050;-79
2023/05/18 08:33:01;;;;;;;9.02;1.20;;;13.20;66.80;;;;;;4995226;28;20301;-81
2023/05/18 08:35:27;;;;;;;6.10;1.08;;;13.30;65.70;;;;;;4995222;28;20062;-79
2023/05/18 08:37:54;;;;;;;6.35;1.20;;;13.40;66.40;;;;;;4993977;28;20057;-80
2023/05/18 08:40:19;;;;;;;7.38;1.30;;;13.50;64.90;;;;;;4994113;28;20080;-80
2023/05/18 08:43:07;;;;;;;7.57;1.33;;;13.60;64.80;;;;;;4994405;28;20022;-79
2023/05/18 08:45:44;;;;;;;6.25;0.93;;;13.70;64.90;;;;;;4995094;28;20026;-81
2023/05/18 08:48:12;;;;;;;7.63;0.73;;;13.80;64.80;;;;;;4995019;28;20054;-79
2023/05/18 08:50:41;;;;;;;6.60;1.33;;;13.90;64.70;;;;;;4994842;28;20100;-80
2023/05/18 08:53:09;;;;;;;5.82;1.05;;;13.90;64.10;;;;;;4994841;28;20026;-80
2023/05/18 08:55:36;;;;;;;12.13;2.00;;;14.00;63.00;;;;;;4994849;28;20598;-80
2023/05/18 08:58:03;;;;;;;11.32;1.17;;;14.10;62.60;;;;;;4993865;28;20037;-80
2023/05/18 09:00:30;;;;;;;6.63;1.27;;;14.20;62.80;;;;;;4993538;28;20030;-81
2023/05/18 09:02:56;;;;;;;5.50;1.10;;;14.30;62.70;;;;;;4994716;28;20097;-81
2023/05/18 09:05:22;;;;;;;8.20;1.10;;;14.30;62.60;;;;;;4977435;28;20398;-80
2023/05/18 09:07:52;;;;;;;5.25;1.30;;;14.40;62.00;;;;;;4993367;28;20118;-81
2023/05/18 09:10:18;;;;;;;8.52;0.95;;;14.50;62.10;;;;;;4994157;28;20375;-82
2023/05/18 09:12:45;;;;;;;7.63;1.35;;;14.60;62.10;;;;;;4994537;28;20038;-80
2023/05/18 09:15:14;;;;;;;6.03;1.45;;;14.60;62.10;;;;;;4994386;28;20389;-80
2023/05/18 09:17:40;;;;;;;12.20;1.13;;;14.70;61.90;;;;;;4994434;28;20038;-80
2023/05/18 09:20:07;;;;;;;6.80;1.20;;;14.80;61.40;;;;;;4994270;28;20057;-80
2023/05/18 09:22:39;;;;;;;6.32;0.82;;;14.90;61.20;;;;;;4994310;28;20105;-81
2023/05/18 09:25:08;;;;;;;5.47;1.00;;;14.90;60.70;;;;;;4993032;28;20050;-81
2023/05/18 09:27:34;;;;;;;7.60;1.08;;;14.90;60.70;;;;;;4994149;28;20034;-79
2023/05/18 09:29:59;;;;;;;6.28;1.13;;;15.00;60.80;;;;;;4976802;28;20033;-80
2023/05/18 09:32:26;;;;;;;10.57;1.45;;;15.10;60.70;;;;;;4986896;28;20450;-80
2023/05/18 09:34:52;;;;;;;8.55;1.45;;;15.20;60.50;;;;;;4974779;28;20041;-80
2023/05/18 09:37:19;;;;;;;8.85;1.42;;;15.30;60.40;;;;;;4982533;28;20139;-79
2023/05/18 09:39:58;;;;;;;7.43;1.10;;;15.40;60.30;;;;;;4982849;28;20030;-79
2023/05/18 09:42:43;;;;;;;5.60;1.05;;;15.50;59.50;;;;;;4983261;28;20118;-78
2023/05/18 09:45:25;;;;;;;6.45;1.27;;;15.60;59.30;;;;;;5001742;28;20117;-78
2023/05/18 09:47:51;;;;;;;7.55;1.27;;;15.70;59.20;;;;;;5004255;28;20034;-79
2023/05/18 09:50:21;;;;;;;4.63;0.75;;;15.80;59.00;;;;;;4993925;28;20037;-77
2023/05/18 09:52:48;;;;;;;6.38;1.52;;;15.90;58.80;;;;;;4993738;28;20026;-79
2023/05/18 09:55:19;;;;;;;6.70;1.33;;;15.90;57.90;;;;;;5009160;28;20034;-78
2023/05/18 09:57:47;;;;;;;6.80;1.58;;;16.00;57.40;;;;;;4993783;28;20053;-78
2023/05/18 10:00:18;;;;;;;8.85;1.52;;;16.00;56.60;;;;;;4993738;28;20040;-77
2023/05/18 10:02:51;;;;;;;8.57;1.70;;;16.10;56.80;;;;;;4993759;28;20030;-79
2023/05/18 10:05:21;;;;;;;13.13;1.40;;;16.20;56.80;;;;;;4993843;28;20434;-78
2023/05/18 10:07:47;;;;;;;8.93;1.48;;;16.20;56.70;;;;;;4993739;28;20030;-78
2023/05/18 10:10:18;;;;;;;7.22;1.20;;;16.20;56.70;;;;;;5005936;28;20055;-80
2023/05/18 10:12:44;;;;;;;5.03;0.95;;;16.30;56.80;;;;;;4993667;28;20022;-81
2023/05/18 10:15:13;;;;;;;5.53;1.17;;;16.20;56.80;;;;;;4993949;28;20108;-80
2023/05/18 10:17:41;;;;;;;3.65;1.00;;;16.20;56.90;;;;;;4993873;28;20419;-80
2023/05/18 10:20:08;;;;;;;6.22;0.80;;;16.30;56.90;;;;;;4994094;28;20382;-81
2023/05/18 10:22:35;;;;;;;6.40;1.10;;;16.30;56.80;;;;;;4993902;28;20022;-79
2023/05/18 10:25:04;;;;;;;9.10;1.30;;;16.40;56.80;;;;;;4993940;28;20113;-80
2023/05/18 10:27:34;;;;;;;5.25;1.00;;;16.50;56.50;;;;;;4992579;28;20018;-80
2023/05/18 10:30:03;;;;;;;6.53;0.90;;;16.50;56.10;;;;;;4993717;28;20018;-81
2023/05/18 10:32:31;;;;;;;5.63;1.10;;;16.50;56.10;;;;;;4993806;28;20085;-81
2023/05/18 10:34:57;;;;;;;6.22;1.85;;;16.60;56.10;;;;;;4993697;28;20030;-82
2023/05/18 10:37:25;;;;;;;6.55;0.95;;;16.70;56.00;;;;;;4993825;28;20113;-80
2023/05/18 10:39:54;;;;;;;4.43;1.25;;;16.80;56.00;;;;;;4993618;28;20475;-80
2023/05/18 10:42:21;;;;;;;5.03;1.02;;;16.90;56.10;;;;;;4993598;28;20426;-80
2023/05/18 10:44:46;;;;;;;4.70;0.90;;;17.00;56.00;;;;;;4992047;28;20026;-81
2023/05/18 10:47:14;;;;;;;4.50;1.20;;;17.20;55.60;;;;;;4989320;28;20026;-82
2023/05/18 10:49:42;;;;;;;6.63;0.98;;;17.30;55.40;;;;;;4974123;28;20033;-82
2023/05/18 10:52:10;;;;;;;6.80;1.60;;;17.40;55.10;;;;;;4974168;28;20035;-82
2023/05/18 10:54:37;;;;;;;5.10;0.98;;;17.60;54.90;;;;;;4973982;28;20049;-82
2023/05/18 10:57:02;;;;;;;4.85;1.00;;;17.60;54.50;;;;;;4974037;28;20031;-83
2023/05/18 10:59:28;;;;;;;8.63;1.05;;;17.80;54.50;;;;;;4974094;28;20037;-82
2023/05/18 11:01:56;;;;;;;3.17;0.80;;;17.90;54.10;;;;;;4973966;28;20061;-79
2023/05/18 11:04:26;;;;;;;3.10;0.80;;;18.10;54.10;;;;;;4976500;28;20042;-84
2023/05/18 11:06:58;;;;;;;4.22;1.15;;;18.30;53.90;;;;;;4978909;28;20034;-83
2023/05/18 11:09:25;;;;;;;5.22;1.10;;;18.40;53.60;;;;;;4977553;28;20105;-80
2023/05/18 11:11:56;;;;;;;5.55;1.45;;;18.60;53.60;;;;;;4977652;28;20027;-82
2023/05/18 11:14:27;;;;;;;3.25;0.70;;;18.80;53.30;;;;;;4992357;28;20027;-81
2023/05/18 11:16:53;;;;;;;6.10;1.02;;;19.10;53.10;;;;;;4976150;28;20035;-80
2023/05/18 11:19:27;;;;;;;8.05;1.23;;;19.30;53.30;;;;;;4975940;28;20035;-82
2023/05/18 11:21:53;;;;;;;5.50;1.10;;;19.50;52.70;;;;;;4975932;28;20403;-81
2023/05/18 11:24:31;;;;;;;11.77;1.10;;;19.70;51.90;;;;;;4973226;28;20027;-80
2023/05/18 11:26:56;;;;;;;4.93;0.90;;;19.80;51.50;;;;;;4974666;28;20320;-80
2023/05/18 11:29:31;;;;;;;3.33;0.73;;;20.00;51.10;;;;;;4975509;28;20521;-79
2023/05/18 11:31:57;;;;;;;9.02;1.83;;;20.10;50.50;;;;;;4975544;28;20176;-82
2023/05/18 11:34:43;;;;;;;4.93;1.02;;;20.30;50.10;;;;;;4975440;28;20110;-80
2023/05/18 11:37:37;;;;;;;5.60;1.05;;;20.50;49.20;;;;;;4976452;28;20027;-80
2023/05/18 11:40:04;;;;;;;3.45;0.90;;;20.70;49.10;;;;;;4971702;28;20082;-80
2023/05/18 11:42:33;;;;;;;5.30;0.88;;;20.80;49.00;;;;;;4976740;28;20050;-81
2023/05/18 11:45:06;;;;;;;6.28;0.90;;;20.80;48.50;;;;;;4981030;28;20026;-81
2023/05/18 11:47:33;;;;;;;4.82;0.77;;;20.80;48.30;;;;;;4996272;28;20031;-83
2023/05/18 11:49:59;;;;;;;5.22;1.52;;;20.90;48.10;;;;;;4996464;28;20031;-79
2023/05/18 11:52:25;;;;;;;4.10;0.90;;;20.90;47.90;;;;;;4994857;28;20035;-81
2023/05/18 11:54:58;;;;;;;4.35;1.05;;;20.90;47.90;;;;;;4995956;28;20111;-79
2023/05/18 11:57:33;;;;;;;5.05;1.08;;;20.90;47.70;;;;;;4996035;28;20054;-81
2023/05/18 12:00:00;;;;;;;5.28;1.02;;;21.00;47.50;;;;;;4994915;28;20034;-80
2023/05/18 12:02:30;;;;;;;5.57;1.08;;;21.10;47.50;;;;;;4996410;28;20073;-81
2023/05/18 12:04:59;;;;;;;4.28;0.88;;;21.00;47.20;;;;;;4995119;28;20121;-81
2023/05/18 12:07:27;;;;;;;6.38;1.00;;;21.10;47.40;;;;;;4994739;28;20072;-79
2023/05/18 12:10:03;;;;;;;7.70;1.10;;;21.10;47.30;;;;;;4995690;28;20058;-80
2023/05/18 12:12:30;;;;;;;4.78;1.02;;;21.20;47.10;;;;;;4995671;28;20054;-81
2023/05/18 12:14:58;;;;;;;7.88;1.45;;;21.20;47.00;;;;;;4995742;28;20037;-81
2023/05/18 12:17:40;;;;;;;5.93;1.00;;;21.20;46.70;;;;;;4994532;28;20113;-81
2023/05/18 12:20:27;;;;;;;5.18;1.10;;;21.30;46.50;;;;;;4995815;28;20042;-81
2023/05/18 12:22:54;;;;;;;8.32;1.20;;;21.30;46.40;;;;;;4994277;28;20034;-80
2023/05/18 12:25:25;;;;;;;4.38;0.95;;;21.50;46.60;;;;;;4995545;28;20026;-80
2023/05/18 12:27:52;;;;;;;7.20;1.20;;;21.60;46.40;;;;;;4995535;28;20019;-82
2023/05/18 12:30:20;;;;;;;4.00;0.80;;;21.70;46.50;;;;;;4994358;28;20038;-82
2023/05/18 12:32:53;;;;;;;4.57;0.82;;;21.90;46.60;;;;;;4994634;28;20026;-79
2023/05/18 12:35:22;;;;;;;;;;;22.20;46.30;;;;;;4994584;28;20034;-81
2023/05/18 12:37:48;;;;;;;3.63;1.00;;;22.50;46.30;;;;;;4995587;28;20408;-82
2023/05/18 12:40:17;;;;;;;7.38;0.93;;;22.70;46.30;;;;;;4995503;28;20065;-75
2023/05/18 12:42:58;;;;;;;6.90;1.40;;;22.90;46.00;;;;;;4995344;28;20034;-76
2023/05/18 12:45:26;;;;;;;5.68;0.70;;;23.10;45.30;;;;;;4995378;28;20022;-76
2023/05/18 12:47:53;;;;;;;6.43;0.90;;;23.40;45.10;;;;;;4977901;28;20038;-76
2023/05/18 12:50:25;;;;;;;5.50;1.05;;;23.60;44.80;;;;;;4995201;28;20110;-77
2023/05/18 12:52:51;;;;;;;4.35;0.85;;;23.90;44.30;;;;;;4995249;28;20034;-76
2023/05/18 12:55:20;;;;;;;3.83;0.95;;;24.10;44.10;;;;;;4995136;28;20499;-75